createdAt,value
2019-04-07T00:02:01.634Z,99.90
2019-04-07T00:04:30.629Z,99.90
2019-04-07T00:06:59.394Z,99.90
2019-04-07T00:09:27.970Z,99.90
2019-04-07T00:11:56.612Z,99.90
2019-04-07T00:14:26.024Z,99.90
2019-04-07T00:16:54.769Z,99.90
2019-04-07T00:19:23.413Z,99.90
2019-04-07T00:21:51.982Z,99.90
2019-04-07T00:24:20.571Z,99.90
2019-04-07T00:26:49.222Z,99.90
2019-04-07T00:29:17.815Z,99.90
2019-04-07T00:31:46.393Z,99.90
2019-04-07T00:34:15.473Z,99.90
2019-04-07T00:36:44.564Z,99.90
2019-04-07T00:39:13.501Z,99.90
2019-04-07T00:41:42.150Z,99.90
2019-04-07T00:44:11.406Z,99.90
2019-04-07T00:46:40.040Z,99.90
2019-04-07T00:49:08.610Z,99.90
2019-04-07T00:51:37.541Z,99.90
2019-04-07T00:54:06.289Z,99.90
2019-04-07T00:56:34.853Z,99.90
2019-04-07T00:59:03.433Z,99.90
2019-04-07T01:01:31.993Z,99.90
2019-04-07T01:04:01.136Z,99.90
2019-04-07T01:06:29.869Z,99.90
2019-04-07T01:08:59.098Z,99.90
2019-04-07T01:11:27.746Z,99.90
2019-04-07T01:13:56.880Z,99.90
2019-04-07T01:16:26.121Z,99.90
2019-04-07T01:18:54.762Z,99.90
2019-04-07T01:21:23.750Z,99.90
2019-04-07T01:23:52.302Z,99.90
2019-04-07T01:26:20.882Z,99.90
2019-04-07T01:28:49.445Z,99.90
2019-04-07T01:31:18.762Z,99.90
2019-04-07T01:33:47.784Z,99.90
2019-04-07T01:36:16.349Z,99.90
2019-04-07T01:38:45.351Z,99.90
2019-04-07T01:41:19.509Z,99.90
2019-04-07T01:43:53.572Z,99.90
2019-04-07T01:46:24.232Z,99.90
2019-04-07T01:48:54.401Z,99.90
2019-04-07T01:51:33.602Z,99.90
2019-04-07T01:54:18.570Z,99.90
2019-04-07T01:57:06.050Z,99.90
2019-04-07T01:59:52.815Z,99.90
2019-04-07T02:02:40.069Z,99.90
2019-04-07T02:05:13.486Z,99.90
2019-04-07T02:07:56.550Z,99.90
2019-04-07T02:10:42.823Z,99.90
2019-04-07T02:13:25.502Z,99.90
2019-04-07T02:16:11.438Z,99.90
2019-04-07T02:18:41.814Z,99.90
2019-04-07T02:21:12.202Z,99.90
2019-04-07T02:23:42.442Z,99.90
2019-04-07T02:26:28.121Z,99.90
2019-04-07T02:29:14.717Z,99.90
2019-04-07T02:31:48.175Z,99.90
2019-04-07T02:34:34.723Z,99.90
2019-04-07T02:37:20.610Z,99.90
2019-04-07T02:40:09.626Z,99.90
2019-04-07T02:42:46.150Z,99.90
2019-04-07T02:45:22.377Z,99.90
2019-04-07T02:48:05.162Z,99.90
2019-04-07T02:50:35.435Z,99.90
2019-04-07T02:53:09.495Z,99.90
2019-04-07T02:55:40.754Z,99.90
2019-04-07T02:58:13.878Z,99.90
2019-04-07T03:00:44.528Z,99.90
2019-04-07T03:03:27.251Z,99.90
2019-04-07T03:06:07.136Z,99.90
2019-04-07T03:08:53.932Z,99.90
2019-04-07T03:11:42.802Z,99.90
2019-04-07T03:14:14.118Z,99.90
2019-04-07T03:16:44.783Z,99.90
2019-04-07T03:19:15.130Z,99.90
2019-04-07T03:21:57.877Z,99.90
2019-04-07T03:24:40.472Z,99.90
2019-04-07T03:27:19.619Z,99.90
2019-04-07T03:30:06.473Z,99.90
2019-04-07T03:32:38.838Z,99.90
2019-04-07T03:35:25.203Z,99.90
2019-04-07T03:37:57.138Z,99.90
2019-04-07T03:40:33.567Z,99.90
2019-04-07T03:43:04.925Z,99.90
2019-04-07T03:45:52.004Z,99.90
2019-04-07T03:48:28.485Z,99.90
2019-04-07T03:51:00.007Z,99.90
2019-04-07T03:53:47.419Z,99.90
2019-04-07T03:56:30.672Z,99.90
2019-04-07T03:59:01.066Z,99.90
2019-04-07T04:01:34.265Z,99.90
2019-04-07T04:04:07.319Z,99.90
2019-04-07T04:06:54.735Z,99.90
2019-04-07T04:09:41.309Z,99.90
2019-04-07T04:12:18.186Z,99.90
2019-04-07T04:14:48.642Z,99.90
2019-04-07T04:17:17.187Z,99.90
2019-04-07T04:19:46.576Z,99.90
2019-04-07T04:22:15.276Z,99.90
2019-04-07T04:24:43.959Z,99.90
2019-04-07T04:27:12.903Z,99.90
2019-04-07T04:29:41.619Z,99.90
2019-04-07T04:32:10.310Z,99.90
2019-04-07T04:34:39.055Z,99.90
2019-04-07T04:37:08.152Z,99.90
2019-04-07T04:39:37.510Z,99.90
2019-04-07T04:42:07.007Z,99.90
2019-04-07T04:44:35.967Z,99.90
2019-04-07T04:47:04.863Z,99.90
2019-04-07T04:49:33.561Z,99.90
2019-04-07T04:52:03.022Z,99.90
2019-04-07T04:54:31.912Z,99.90
2019-04-07T04:57:04.118Z,99.90
2019-04-07T04:59:31.218Z,99.90
2019-04-07T05:02:00.049Z,99.90
2019-04-07T05:04:29.354Z,99.90
2019-04-07T05:06:59.372Z,99.90
2019-04-07T05:09:40.019Z,99.90
2019-04-07T05:11:58.723Z,99.90
2019-04-07T05:14:27.559Z,99.90
2019-04-07T05:16:56.290Z,99.90
2019-04-07T05:19:24.901Z,99.90
2019-04-07T05:21:53.445Z,99.90
2019-04-07T05:24:22.218Z,99.90
2019-04-07T05:26:50.923Z,99.90
2019-04-07T05:29:20.077Z,99.90
2019-04-07T05:31:49.195Z,99.90
2019-04-07T05:34:20.575Z,99.90
2019-04-07T05:36:48.380Z,99.90
2019-04-07T05:39:17.479Z,99.90
2019-04-07T05:41:46.521Z,99.90
2019-04-07T05:44:18.104Z,99.90
2019-04-07T05:46:49.419Z,99.90
2019-04-07T05:49:17.831Z,99.90
2019-04-07T05:51:47.206Z,99.90
2019-04-07T05:54:18.082Z,99.90
2019-04-07T05:56:46.097Z,99.90
2019-04-07T05:59:14.720Z,99.90
2019-04-07T06:01:44.588Z,99.90
2019-04-07T06:04:16.874Z,99.90
2019-04-07T06:06:44.207Z,99.90
2019-04-07T06:09:13.618Z,99.90
2019-04-07T06:11:42.261Z,99.90
2019-04-07T06:14:13.397Z,99.90
2019-04-07T06:16:41.640Z,99.90
2019-04-07T06:19:10.646Z,99.90
2019-04-07T06:21:39.921Z,99.90
2019-04-07T06:24:08.968Z,99.90
2019-04-07T06:26:41.508Z,99.90
2019-04-07T06:29:07.881Z,99.90
2019-04-07T06:31:36.618Z,99.90
2019-04-07T06:34:08.174Z,99.90
2019-04-07T06:36:35.713Z,99.90
2019-04-07T06:39:08.211Z,99.90
2019-04-07T06:41:36.893Z,99.90
2019-04-07T06:44:12.661Z,99.90
2019-04-07T06:46:49.685Z,99.90
2019-04-07T06:49:28.407Z,99.90
2019-04-07T06:52:15.950Z,99.90
2019-04-07T06:54:46.229Z,99.90
2019-04-07T06:57:35.132Z,99.90
2019-04-07T07:00:08.230Z,99.90
2019-04-07T07:02:45.404Z,99.90
2019-04-07T07:05:18.933Z,99.90
2019-04-07T07:07:49.845Z,99.90
2019-04-07T07:10:27.420Z,99.90
2019-04-07T07:13:01.547Z,99.90
2019-04-07T07:15:46.448Z,99.90
2019-04-07T07:18:22.917Z,98.60
2019-04-07T07:20:55.686Z,98.20
2019-04-07T07:23:26.362Z,92.40
2019-04-07T07:25:55.504Z,91.20
2019-04-07T07:28:24.315Z,96.00
2019-04-07T07:30:53.738Z,94.70
2019-04-07T07:33:23.467Z,97.20
2019-04-07T07:35:52.684Z,97.40
2019-04-07T07:38:21.407Z,98.40
2019-04-07T07:40:50.099Z,98.90
2019-04-07T07:43:18.817Z,93.80
2019-04-07T07:45:48.526Z,84.50
2019-04-07T07:48:17.526Z,88.70
2019-04-07T07:50:46.968Z,86.10
2019-04-07T07:53:15.802Z,87.40
2019-04-07T07:55:44.535Z,65.00
2019-04-07T07:58:13.902Z,55.70
2019-04-07T08:00:43.396Z,51.50
2019-04-07T08:03:12.635Z,48.90
2019-04-07T08:05:41.214Z,53.10
2019-04-07T08:08:10.335Z,51.00
2019-04-07T08:10:39.691Z,50.00
2019-04-07T08:13:09.022Z,47.30
2019-04-07T08:15:37.837Z,45.90
2019-04-07T08:18:07.655Z,44.40
2019-04-07T08:20:37.372Z,44.60
2019-04-07T08:23:06.811Z,42.50
2019-04-07T08:25:35.804Z,43.60
2019-04-07T08:28:04.735Z,45.20
2019-04-07T08:30:33.349Z,50.40
2019-04-07T08:33:02.423Z,52.40
2019-04-07T08:35:35.749Z,63.60
2019-04-07T08:38:02.298Z,59.50
2019-04-07T08:40:30.943Z,60.70
2019-04-07T08:42:59.555Z,52.50
2019-04-07T08:45:31.676Z,47.80
2019-04-07T08:47:59.485Z,45.60
2019-04-07T08:50:28.696Z,53.70
2019-04-07T08:52:57.850Z,60.70
2019-04-07T08:55:26.454Z,62.90
2019-04-07T08:57:55.060Z,68.70
2019-04-07T09:00:26.101Z,64.00
2019-04-07T09:03:03.680Z,75.60
2019-04-07T09:05:28.847Z,79.40
2019-04-07T09:07:55.837Z,83.70
2019-04-07T09:10:26.088Z,84.80
2019-04-07T09:12:56.818Z,84.10
2019-04-07T09:15:27.060Z,90.30
2019-04-07T09:18:06.091Z,84.50
2019-04-07T09:20:40.051Z,61.10
2019-04-07T09:23:08.188Z,59.50
2019-04-07T09:25:55.115Z,63.00
2019-04-07T09:28:25.550Z,68.20
2019-04-07T09:31:02.933Z,57.40
2019-04-07T09:33:38.093Z,48.10
2019-04-07T09:36:09.078Z,42.80
2019-04-07T09:38:39.698Z,37.80
2019-04-07T09:41:21.577Z,35.90
2019-04-07T09:43:57.153Z,37.70
2019-04-07T09:46:48.407Z,37.20
2019-04-07T09:49:28.337Z,38.00
2019-04-07T09:51:58.705Z,36.60
2019-04-07T09:54:44.026Z,38.20
2019-04-07T09:57:21.142Z,38.70
2019-04-07T10:00:08.331Z,39.30
2019-04-07T10:02:39.422Z,41.50
2019-04-07T10:05:11.296Z,40.70
2019-04-07T10:07:44.925Z,40.20
2019-04-07T10:10:24.761Z,41.70
2019-04-07T10:12:57.753Z,42.50
2019-04-07T10:15:44.324Z,42.50
2019-04-07T10:18:14.554Z,41.10
2019-04-07T10:20:47.534Z,40.30
2019-04-07T10:23:17.840Z,39.50
2019-04-07T10:25:48.111Z,38.90
2019-04-07T10:28:27.691Z,39.30
2019-04-07T10:31:15.091Z,38.30
2019-04-07T10:33:49.359Z,35.10
2019-04-07T10:36:36.343Z,37.10
2019-04-07T10:39:12.001Z,38.10
2019-04-07T10:41:45.249Z,37.70
2019-04-07T10:44:27.709Z,35.40
2019-04-07T10:46:57.914Z,35.40
2019-04-07T10:49:28.128Z,36.50
2019-04-07T10:52:07.222Z,36.70
2019-04-07T10:54:38.112Z,38.00
2019-04-07T10:57:20.754Z,37.90
2019-04-07T11:00:07.458Z,39.00
2019-04-07T11:02:37.710Z,38.00
2019-04-07T11:05:09.580Z,37.40
2019-04-07T11:07:51.953Z,35.60
2019-04-07T11:10:32.977Z,35.10
2019-04-07T11:13:06.166Z,34.10
2019-04-07T11:15:37.042Z,34.10
2019-04-07T11:18:20.675Z,32.70
2019-04-07T11:20:57.243Z,34.40
2019-04-07T11:23:28.464Z,34.20
2019-04-07T11:26:14.254Z,33.60
2019-04-07T11:28:50.714Z,32.30
2019-04-07T11:31:37.449Z,33.90
2019-04-07T11:34:07.715Z,34.60
2019-04-07T11:36:38.561Z,33.90
2019-04-07T11:39:15.235Z,34.10
2019-04-07T11:42:01.566Z,34.10
2019-04-07T11:44:32.282Z,35.20
2019-04-07T11:47:15.373Z,34.40
2019-04-07T11:50:01.766Z,32.90
2019-04-07T11:52:37.622Z,33.70
2019-04-07T11:55:10.475Z,32.80
2019-04-07T11:58:09.713Z,33.30
2019-04-07T12:00:29.285Z,35.60
2019-04-07T12:03:03.876Z,33.70
2019-04-07T12:05:37.760Z,34.10
2019-04-07T12:08:08.267Z,32.80
2019-04-07T12:11:02.137Z,34.30
2019-04-07T12:13:38.657Z,33.50
2019-04-07T12:16:24.771Z,33.70
2019-04-07T12:19:11.645Z,33.00
2019-04-07T12:21:45.667Z,31.10
2019-04-07T12:24:15.945Z,33.80
2019-04-07T12:27:03.530Z,33.20
2019-04-07T12:29:34.218Z,33.30
2019-04-07T12:32:05.126Z,32.70
2019-04-07T12:34:38.630Z,31.40
2019-04-07T12:37:18.778Z,33.80
2019-04-07T12:39:52.259Z,33.00
2019-04-07T12:42:39.167Z,33.40
2019-04-07T12:45:10.174Z,33.10
2019-04-07T12:47:41.137Z,32.80
2019-04-07T12:50:19.721Z,32.70
2019-04-07T12:52:57.799Z,33.00
2019-04-07T12:55:49.622Z,33.50
2019-04-07T12:58:32.754Z,33.20
2019-04-07T13:01:15.182Z,32.40
2019-04-07T13:03:40.807Z,32.00
2019-04-07T13:06:11.131Z,32.80
2019-04-07T13:11:40.218Z,34.40
2019-04-07T13:14:09.976Z,33.40
2019-04-07T13:16:46.360Z,34.60
2019-04-07T13:19:25.443Z,33.60
2019-04-07T13:22:07.983Z,32.30
2019-04-07T13:24:47.816Z,32.40
2019-04-07T13:27:37.553Z,31.50
2019-04-07T13:30:24.278Z,34.00
2019-04-07T13:33:01.892Z,32.80
2019-04-07T13:35:31.934Z,36.60
2019-04-07T13:38:18.702Z,35.40
2019-04-07T13:40:52.052Z,33.60
2019-04-07T13:43:31.121Z,34.10
2019-04-07T13:46:21.875Z,34.80
2019-04-07T13:48:58.750Z,34.70
2019-04-07T13:51:40.866Z,35.20
2019-04-07T13:54:21.197Z,37.10
2019-04-07T13:56:52.279Z,35.90
2019-04-07T13:59:23.658Z,36.20
2019-04-07T14:01:55.383Z,35.00
2019-04-07T14:04:37.674Z,35.90
2019-04-07T14:07:08.715Z,36.40
2019-04-07T14:09:42.110Z,36.90
2019-04-07T14:12:33.414Z,37.30
2019-04-07T14:15:06.055Z,37.00
2019-04-07T14:17:43.770Z,38.00
2019-04-07T14:20:14.942Z,38.00
2019-04-07T14:22:52.064Z,37.20
2019-04-07T14:25:40.003Z,38.00
2019-04-07T14:28:11.160Z,38.60
2019-04-07T14:30:56.318Z,38.90
2019-04-07T14:33:35.915Z,39.40
2019-04-07T14:36:11.771Z,40.20
2019-04-07T14:38:48.070Z,39.60
2019-04-07T14:41:20.715Z,39.30
2019-04-07T14:43:53.855Z,39.00
2019-04-07T14:46:40.135Z,41.20
2019-04-07T14:49:30.446Z,41.10
2019-04-07T14:52:03.808Z,42.70
2019-04-07T14:54:34.617Z,42.40
2019-04-07T14:57:09.086Z,41.60
2019-04-07T14:59:56.330Z,42.80
2019-04-07T15:02:25.096Z,43.20
2019-04-07T15:04:56.906Z,43.70
2019-04-07T15:07:46.263Z,44.50
2019-04-07T15:10:27.355Z,44.80
2019-04-07T15:13:06.722Z,45.20
2019-04-07T15:15:35.729Z,45.30
2019-04-07T15:18:05.094Z,45.00
2019-04-07T15:20:34.445Z,45.10
2019-04-07T15:23:03.088Z,44.70
2019-04-07T15:25:31.738Z,44.40
2019-04-07T15:28:01.328Z,44.70
2019-04-07T15:30:31.087Z,44.60
2019-04-07T15:33:01.613Z,44.80
2019-04-07T15:35:30.211Z,45.40
2019-04-07T15:37:59.553Z,46.00
2019-04-07T15:40:28.244Z,46.80
2019-04-07T15:42:56.984Z,47.40
2019-04-07T15:45:26.628Z,49.00
2019-04-07T15:47:55.312Z,48.60
2019-04-07T15:50:24.676Z,49.70
2019-04-07T15:52:54.091Z,48.70
2019-04-07T15:55:28.308Z,50.80
2019-04-07T15:57:55.575Z,51.30
2019-04-07T16:00:23.726Z,52.70
2019-04-07T16:02:53.544Z,53.20
2019-04-07T16:05:22.746Z,54.90
2019-04-07T16:07:54.310Z,55.10
2019-04-07T16:10:23.563Z,54.60
2019-04-07T16:12:53.598Z,55.20
2019-04-07T16:15:23.088Z,57.30
2019-04-07T16:17:52.296Z,59.60
2019-04-07T16:20:25.182Z,63.90
2019-04-07T16:22:52.686Z,65.10
2019-04-07T16:25:26.183Z,67.60
2019-04-07T16:27:51.655Z,70.80
2019-04-07T16:30:21.517Z,73.00
2019-04-07T16:32:50.134Z,76.00
2019-04-07T16:35:18.885Z,75.80
2019-04-07T16:37:47.911Z,79.00
2019-04-07T16:40:16.923Z,77.90
2019-04-07T16:43:00.371Z,80.70
2019-04-07T16:45:17.777Z,84.50
2019-04-07T16:47:46.175Z,85.40
2019-04-07T16:50:18.149Z,87.50
2019-04-07T16:52:45.222Z,89.30
2019-04-07T16:55:32.716Z,88.50
2019-04-07T16:58:02.360Z,90.10
2019-04-07T17:00:32.390Z,90.70
2019-04-07T17:03:01.295Z,90.30
2019-04-07T17:05:30.315Z,91.30
2019-04-07T17:07:59.497Z,92.00
2019-04-07T17:10:32.331Z,92.70
2019-04-07T17:13:00.803Z,93.20
2019-04-07T17:15:29.620Z,93.50
2019-04-07T17:17:58.816Z,94.30
2019-04-07T17:20:28.466Z,95.10
2019-04-07T17:22:58.244Z,95.30
2019-04-07T17:25:26.978Z,95.80
2019-04-07T17:27:58.662Z,95.90
2019-04-07T17:30:26.275Z,95.80
2019-04-07T17:32:56.570Z,95.70
2019-04-07T17:35:25.194Z,96.50
2019-04-07T17:37:58.790Z,97.40
2019-04-07T17:40:26.711Z,97.40
2019-04-07T17:42:57.054Z,97.30
2019-04-07T17:45:43.798Z,98.00
2019-04-07T17:48:38.573Z,98.70
2019-04-07T17:51:10.066Z,98.80
2019-04-07T17:53:57.270Z,99.10
2019-04-07T17:56:43.478Z,99.70
2019-04-07T17:59:32.355Z,99.90
2019-04-07T18:02:08.682Z,99.90
2019-04-07T18:04:55.562Z,99.90
2019-04-07T18:07:44.848Z,99.90
2019-04-07T18:10:15.555Z,99.90
2019-04-07T18:12:49.658Z,99.90
2019-04-07T18:15:29.807Z,99.90
2019-04-07T18:18:06.924Z,99.90
2019-04-07T18:20:54.056Z,99.90
2019-04-07T18:23:38.149Z,99.90
2019-04-07T18:26:14.402Z,99.90
2019-04-07T18:29:01.756Z,99.90
2019-04-07T18:31:36.232Z,99.90
2019-04-07T18:34:23.063Z,99.90
2019-04-07T18:36:55.385Z,99.90
2019-04-07T18:39:41.935Z,99.90
2019-04-07T18:42:15.094Z,99.90
2019-04-07T18:44:52.934Z,99.90
2019-04-07T18:47:41.712Z,99.90
2019-04-07T18:50:21.930Z,99.90
2019-04-07T18:53:09.216Z,99.90
2019-04-07T18:55:40.319Z,99.90
2019-04-07T18:58:20.378Z,99.90
2019-04-07T19:00:53.502Z,99.90
2019-04-07T19:03:30.633Z,99.90
2019-04-07T19:06:03.066Z,99.90
2019-04-07T19:08:33.603Z,99.90
2019-04-07T19:14:01.277Z,99.90
2019-04-07T19:16:27.627Z,99.90
2019-04-07T19:19:13.255Z,99.90
2019-04-07T19:21:49.591Z,99.90
2019-04-07T19:24:19.942Z,99.90
2019-04-07T19:26:56.268Z,99.90
2019-04-07T19:29:33.719Z,99.90
2019-04-07T19:32:22.289Z,99.90
2019-04-07T19:35:08.908Z,99.90
2019-04-07T19:37:42.242Z,99.90
2019-04-07T19:40:16.697Z,99.90
2019-04-07T19:43:03.838Z,99.90
2019-04-07T19:45:37.112Z,99.90
2019-04-07T19:48:23.746Z,99.90
2019-04-07T19:50:57.247Z,99.90
2019-04-07T19:53:31.286Z,99.90
2019-04-07T19:56:00.905Z,99.90
2019-04-07T19:58:43.346Z,99.90
2019-04-07T20:01:18.038Z,99.90
2019-04-07T20:04:03.639Z,99.90
2019-04-07T20:06:34.107Z,99.90
2019-04-07T20:09:13.613Z,99.90
2019-04-07T20:11:43.818Z,99.90
2019-04-07T20:14:15.733Z,99.90
2019-04-07T20:16:46.547Z,99.90
2019-04-07T20:19:20.831Z,99.90
2019-04-07T20:21:54.732Z,99.90
2019-04-07T20:24:41.087Z,99.90
2019-04-07T20:27:11.378Z,99.90
2019-04-07T20:32:36.036Z,99.90
2019-04-07T20:35:10.970Z,99.90
2019-04-07T20:37:59.771Z,99.90
2019-04-07T20:40:41.995Z,99.90
2019-04-07T20:43:12.506Z,99.90
2019-04-07T20:45:57.931Z,99.90
2019-04-07T20:48:31.577Z,99.90
2019-04-07T20:51:00.488Z,99.90
2019-04-07T20:53:49.303Z,99.90
2019-04-07T20:56:35.906Z,99.90
2019-04-07T20:59:09.821Z,99.90
2019-04-07T21:01:43.008Z,99.90
2019-04-07T21:04:12.755Z,99.90
2019-04-07T21:06:49.621Z,99.90
2019-04-07T21:09:34.543Z,99.90
2019-04-07T21:12:04.778Z,99.90
2019-04-07T21:14:49.203Z,99.90
2019-04-07T21:17:34.770Z,99.90
2019-04-07T21:20:10.915Z,99.90
2019-04-07T21:22:57.142Z,99.90
2019-04-07T21:25:30.093Z,99.90
2019-04-07T21:28:05.993Z,99.90
2019-04-07T21:30:43.814Z,99.90
2019-04-07T21:33:15.210Z,99.90
2019-04-07T21:36:06.426Z,99.90
2019-04-07T21:38:43.674Z,99.90
2019-04-07T21:41:30.692Z,99.90
2019-04-07T21:44:11.269Z,99.90
2019-04-07T21:46:57.946Z,99.90
2019-04-07T21:49:43.954Z,99.90
2019-04-07T21:52:21.731Z,99.90
2019-04-07T21:54:58.348Z,99.90
2019-04-07T21:57:37.354Z,99.90
2019-04-07T22:00:21.123Z,99.90
2019-04-07T22:03:08.727Z,99.90
2019-04-07T22:05:57.220Z,99.90
2019-04-07T22:08:28.845Z,99.90
2019-04-07T22:10:57.414Z,99.90
2019-04-07T22:13:25.990Z,99.90
2019-04-07T22:15:59.009Z,99.90
2019-04-07T22:18:25.654Z,99.90
2019-04-07T22:20:55.803Z,99.90
2019-04-07T22:23:25.124Z,99.90
2019-04-07T22:25:53.998Z,99.90
2019-04-07T22:28:25.106Z,99.90
2019-04-07T22:30:55.216Z,99.90
2019-04-07T22:33:25.609Z,99.90
2019-04-07T22:35:54.262Z,99.90
2019-04-07T22:38:23.719Z,99.90
2019-04-07T22:40:52.729Z,99.90
2019-04-07T22:43:21.353Z,99.90
2019-04-07T22:45:59.119Z,99.90
2019-04-07T22:48:22.781Z,99.90
2019-04-07T22:50:50.446Z,99.90
2019-04-07T22:53:23.231Z,99.90
2019-04-07T22:55:49.250Z,99.90
2019-04-07T22:58:18.144Z,99.90
2019-04-07T23:00:47.016Z,99.90
2019-04-07T23:03:15.675Z,99.90
2019-04-07T23:05:44.290Z,99.90
2019-04-07T23:08:12.855Z,99.90
2019-04-07T23:10:42.202Z,99.90
2019-04-07T23:13:11.240Z,99.90
2019-04-07T23:15:44.257Z,99.90
2019-04-07T23:18:10.035Z,99.90
2019-04-07T23:20:39.609Z,99.90
2019-04-07T23:23:08.863Z,99.90
2019-04-07T23:25:38.492Z,99.90
2019-04-07T23:28:08.137Z,99.90
2019-04-07T23:30:36.886Z,99.90
2019-04-07T23:33:06.251Z,99.90
2019-04-07T23:35:35.082Z,99.90
2019-04-07T23:38:03.991Z,99.90
2019-04-07T23:40:32.619Z,99.90
2019-04-07T23:43:01.224Z,99.90
2019-04-07T23:45:29.785Z,99.90
2019-04-07T23:47:58.772Z,99.90
2019-04-07T23:50:27.471Z,99.90
2019-04-07T23:52:56.064Z,99.90
2019-04-07T23:55:24.686Z,99.90
2019-04-07T23:57:54.202Z,99.90
